createdAt,value
2019-02-02T00:01:02.168Z,3.70
2019-02-02T00:03:56.290Z,3.90
2019-02-02T00:06:59.170Z,3.03
2019-02-02T00:09:53.497Z,4.10
2019-02-02T00:12:57.245Z,5.27
2019-02-02T00:15:51.553Z,3.70
2019-02-02T00:18:53.391Z,3.37
2019-02-02T00:21:47.471Z,3.40
2019-02-02T00:24:48.770Z,3.10
2019-02-02T00:27:42.233Z,4.77
2019-02-02T00:30:43.671Z,4.30
2019-02-02T00:33:37.080Z,3.67
2019-02-02T00:36:38.755Z,3.23
2019-02-02T00:39:32.233Z,3.63
2019-02-02T00:42:34.069Z,4.00
2019-02-02T00:45:41.447Z,3.60
2019-02-02T00:48:42.178Z,3.10
2019-02-02T00:51:35.687Z,3.27
2019-02-02T00:54:37.363Z,3.57
2019-02-02T00:57:31.088Z,3.93
2019-02-02T01:00:33.244Z,3.80
2019-02-02T01:03:27.158Z,4.50
2019-02-02T01:06:28.421Z,3.50
2019-02-02T01:09:23.513Z,3.73
2019-02-02T01:12:25.158Z,3.33
2019-02-02T01:15:20.743Z,3.50
2019-02-02T01:18:22.213Z,3.73
2019-02-02T01:21:15.973Z,3.53
2019-02-02T01:24:16.671Z,4.30
2019-02-02T01:27:10.931Z,3.33
2019-02-02T01:30:17.047Z,3.63
2019-02-02T01:33:11.165Z,3.50
2019-02-02T01:36:12.585Z,3.33
2019-02-02T01:39:06.877Z,3.83
2019-02-02T01:42:07.687Z,3.23
2019-02-02T01:45:04.829Z,4.87
2019-02-02T01:48:05.110Z,3.90
2019-02-02T01:50:58.704Z,3.97
2019-02-02T01:53:59.831Z,3.30
2019-02-02T01:56:54.315Z,3.67
2019-02-02T01:59:55.233Z,3.50
2019-02-02T02:02:49.743Z,3.60
2019-02-02T02:05:51.615Z,3.60
2019-02-02T02:08:45.663Z,3.63
2019-02-02T02:11:46.437Z,3.40
2019-02-02T02:14:40.524Z,3.57
2019-02-02T02:17:41.624Z,3.90
2019-02-02T02:20:35.563Z,3.63
2019-02-02T02:23:36.488Z,3.47
2019-02-02T02:26:30.062Z,3.53
2019-02-02T02:29:31.433Z,3.60
2019-02-02T02:32:26.170Z,3.90
2019-02-02T02:35:27.836Z,3.50
2019-02-02T02:38:21.970Z,4.23
2019-02-02T02:41:22.937Z,3.90
2019-02-02T02:44:17.047Z,3.50
2019-02-02T02:47:17.629Z,3.77
2019-02-02T02:50:13.259Z,3.70
2019-02-02T02:53:13.843Z,3.47
2019-02-02T02:56:20.973Z,3.83
2019-02-02T02:59:21.879Z,4.07
2019-02-02T03:02:15.602Z,4.10
2019-02-02T03:05:17.620Z,3.40
2019-02-02T03:08:13.683Z,3.40
2019-02-02T03:11:15.095Z,4.10
2019-02-02T03:14:13.753Z,4.17
2019-02-02T03:17:14.607Z,4.13
2019-02-02T03:20:08.430Z,3.80
2019-02-02T03:23:08.463Z,4.20
2019-02-02T03:26:02.576Z,3.57
2019-02-02T03:29:04.215Z,4.07
2019-02-02T03:31:58.295Z,3.63
2019-02-02T03:34:59.707Z,3.60
2019-02-02T03:37:53.284Z,3.40
2019-02-02T03:40:55.094Z,3.80
2019-02-02T03:43:48.755Z,4.23
2019-02-02T03:46:51.257Z,4.43
2019-02-02T03:49:45.873Z,5.67
2019-02-02T03:52:47.438Z,4.10
2019-02-02T03:55:42.431Z,4.63
2019-02-02T03:58:43.173Z,3.87
2019-02-02T04:01:37.043Z,4.00
2019-02-02T04:04:38.886Z,4.10
2019-02-02T04:07:33.094Z,4.07
2019-02-02T04:10:33.614Z,3.97
2019-02-02T04:13:28.236Z,4.30
2019-02-02T04:16:28.985Z,4.03
2019-02-02T04:19:22.892Z,4.30
2019-02-02T04:22:24.758Z,4.10
2019-02-02T04:25:20.130Z,4.70
2019-02-02T04:28:21.582Z,4.27
2019-02-02T04:31:15.640Z,3.70
2019-02-02T04:34:16.847Z,4.67
2019-02-02T04:37:11.216Z,4.07
2019-02-02T04:40:13.820Z,3.73
2019-02-02T04:43:07.960Z,5.03
2019-02-02T04:46:09.633Z,4.30
2019-02-02T04:49:04.756Z,3.80
2019-02-02T04:52:06.214Z,4.40
2019-02-02T04:54:59.684Z,4.00
2019-02-02T04:58:00.653Z,4.67
2019-02-02T05:01:07.658Z,4.20
2019-02-02T05:04:08.756Z,3.77
2019-02-02T05:07:02.864Z,4.97
2019-02-02T05:10:04.472Z,4.07
2019-02-02T05:12:59.307Z,4.00
2019-02-02T05:16:00.672Z,4.40
2019-02-02T05:18:56.352Z,3.73
2019-02-02T05:22:00.850Z,4.67
2019-02-02T05:24:55.830Z,4.30
2019-02-02T05:27:57.002Z,3.87
2019-02-02T05:30:51.329Z,4.17
2019-02-02T05:33:53.641Z,4.47
2019-02-02T05:36:46.702Z,4.67
2019-02-02T05:39:47.672Z,4.17
2019-02-02T05:42:41.870Z,4.30
2019-02-02T05:45:43.216Z,4.27
2019-02-02T05:48:37.591Z,4.77
2019-02-02T05:51:38.967Z,3.90
2019-02-02T05:54:32.222Z,4.80
2019-02-02T05:57:33.307Z,4.13
2019-02-02T06:00:30.328Z,4.33
2019-02-02T06:03:31.103Z,4.47
2019-02-02T06:06:24.468Z,4.20
2019-02-02T06:09:25.821Z,4.23
2019-02-02T06:12:19.505Z,4.73
2019-02-02T06:15:19.921Z,4.60
2019-02-02T06:18:13.569Z,4.20
2019-02-02T06:21:14.396Z,4.03
2019-02-02T06:24:08.674Z,4.30
2019-02-02T06:27:10.323Z,4.47
2019-02-02T06:30:04.918Z,4.40
2019-02-02T06:33:06.739Z,4.50
2019-02-02T06:36:03.539Z,4.20
2019-02-02T06:39:03.297Z,4.77
2019-02-02T06:42:00.729Z,4.67
2019-02-02T06:45:01.973Z,4.40
2019-02-02T06:47:59.452Z,5.33
2019-02-02T06:51:02.125Z,4.40
2019-02-02T06:53:56.134Z,4.87
2019-02-02T06:56:57.431Z,4.43
2019-02-02T06:59:51.685Z,4.80
2019-02-02T07:02:52.827Z,4.60
2019-02-02T07:05:53.649Z,4.63
2019-02-02T07:08:47.474Z,4.80
2019-02-02T07:11:41.474Z,4.80
2019-02-02T07:14:41.361Z,5.03
2019-02-02T07:17:34.763Z,4.47
2019-02-02T07:20:35.064Z,4.70
2019-02-02T07:23:43.449Z,4.30
2019-02-02T07:26:44.171Z,4.80
2019-02-02T07:29:40.230Z,4.63
2019-02-02T07:32:41.835Z,4.40
2019-02-02T07:35:38.849Z,5.53
2019-02-02T07:38:39.851Z,4.87
2019-02-02T07:41:33.663Z,5.23
2019-02-02T07:44:34.333Z,4.33
2019-02-02T07:47:27.863Z,4.73
2019-02-02T07:50:37.721Z,5.43
2019-02-02T07:53:32.043Z,4.47
2019-02-02T07:56:33.223Z,4.63
2019-02-02T07:59:26.939Z,4.80
2019-02-02T08:02:27.627Z,4.87
2019-02-02T08:05:21.626Z,4.73
2019-02-02T08:08:28.467Z,4.83
2019-02-02T08:11:22.079Z,4.57
2019-02-02T08:14:23.143Z,4.30
2019-02-02T08:17:17.051Z,4.37
2019-02-02T08:20:19.346Z,5.43
2019-02-02T08:23:26.415Z,4.50
2019-02-02T08:26:26.742Z,5.10
2019-02-02T08:29:20.310Z,4.47
2019-02-02T08:32:21.513Z,4.80
2019-02-02T08:35:15.241Z,4.60
2019-02-02T08:38:16.842Z,4.70
2019-02-02T08:41:11.550Z,5.03
2019-02-02T08:44:12.135Z,5.63
2019-02-02T08:47:06.737Z,4.63
2019-02-02T08:50:08.123Z,5.50
2019-02-02T08:53:01.797Z,5.40
2019-02-02T08:56:05.760Z,4.83
2019-02-02T08:58:59.199Z,4.53
2019-02-02T09:02:02.838Z,5.30
2019-02-02T09:05:04.000Z,5.13
2019-02-02T09:07:58.509Z,5.13
2019-02-02T09:10:58.965Z,5.07
2019-02-02T09:13:59.258Z,4.83
2019-02-02T09:16:59.432Z,5.00
2019-02-02T09:19:53.639Z,5.17
2019-02-02T09:22:47.335Z,4.90
2019-02-02T09:25:48.033Z,4.87
2019-02-02T09:28:42.401Z,5.27
2019-02-02T09:31:45.248Z,4.77
2019-02-02T09:34:45.880Z,4.77
2019-02-02T09:37:40.777Z,4.73
2019-02-02T09:40:35.010Z,4.87
2019-02-02T09:43:39.682Z,5.63
2019-02-02T09:46:33.240Z,5.30
2019-02-02T09:49:33.554Z,5.20
2019-02-02T09:52:40.743Z,4.60
2019-02-02T09:55:42.036Z,5.07
2019-02-02T09:58:36.184Z,5.07
2019-02-02T10:01:37.643Z,5.10
2019-02-02T10:04:34.106Z,5.03
2019-02-02T10:07:38.840Z,5.03
2019-02-02T10:10:33.559Z,5.00
2019-02-02T10:13:35.117Z,5.20
2019-02-02T10:16:28.432Z,5.40
2019-02-02T10:19:30.082Z,5.20
2019-02-02T10:22:23.908Z,4.97
2019-02-02T10:25:26.324Z,4.77
2019-02-02T10:28:21.880Z,4.80
2019-02-02T10:31:22.844Z,5.07
2019-02-02T10:34:17.107Z,5.30
2019-02-02T10:37:18.333Z,4.93
2019-02-02T10:40:13.340Z,5.10
2019-02-02T10:43:14.507Z,5.03
2019-02-02T10:46:10.714Z,4.70
2019-02-02T10:49:10.334Z,4.83
2019-02-02T10:52:04.836Z,5.00
2019-02-02T10:55:06.342Z,5.20
2019-02-02T10:58:06.940Z,5.13
2019-02-02T11:01:01.400Z,5.13
2019-02-02T11:03:55.624Z,4.53
2019-02-02T11:06:56.336Z,4.70
2019-02-02T11:09:50.509Z,4.87
2019-02-02T11:12:51.976Z,4.80
2019-02-02T11:15:59.536Z,5.40
2019-02-02T11:19:00.786Z,6.43
2019-02-02T11:21:55.085Z,6.27
2019-02-02T11:24:55.903Z,5.70
2019-02-02T11:27:50.310Z,5.70
2019-02-02T11:30:52.358Z,6.83
2019-02-02T11:33:46.246Z,5.77
2019-02-02T11:36:47.602Z,7.97
2019-02-02T11:39:41.052Z,6.47
2019-02-02T11:42:42.296Z,7.10
2019-02-02T11:45:36.214Z,6.23
2019-02-02T11:48:36.791Z,6.50
2019-02-02T11:51:31.014Z,7.33
2019-02-02T11:54:32.576Z,6.60
2019-02-02T11:57:27.880Z,6.97
2019-02-02T12:00:33.497Z,6.67
2019-02-02T12:03:27.057Z,6.30
2019-02-02T12:06:28.301Z,5.93
2019-02-02T12:09:22.245Z,5.67
2019-02-02T12:12:23.579Z,5.33
2019-02-02T12:15:18.954Z,5.57
2019-02-02T12:18:19.313Z,6.77
2019-02-02T12:21:16.040Z,4.83
2019-02-02T12:24:16.795Z,5.43
2019-02-02T12:27:11.079Z,5.17
2019-02-02T12:30:16.241Z,4.83
2019-02-02T12:33:10.125Z,5.50
2019-02-02T12:36:11.449Z,5.37
2019-02-02T12:39:05.687Z,5.83
2019-02-02T12:42:07.122Z,5.00
2019-02-02T12:45:02.102Z,4.57
2019-02-02T12:48:06.392Z,5.53
2019-02-02T12:50:59.906Z,5.00
2019-02-02T12:54:00.757Z,5.00
2019-02-02T12:56:54.303Z,4.80
2019-02-02T12:59:55.216Z,4.70
2019-02-02T13:02:56.475Z,4.33
2019-02-02T13:05:51.220Z,5.03
2019-02-02T13:08:45.109Z,5.30
2019-02-02T13:11:46.172Z,5.30
2019-02-02T13:14:53.129Z,5.63
2019-02-02T13:17:54.065Z,4.40
2019-02-02T13:20:48.385Z,5.27
2019-02-02T13:23:50.016Z,5.27
2019-02-02T13:26:44.178Z,4.90
2019-02-02T13:29:44.822Z,5.00
2019-02-02T13:32:49.138Z,4.90
2019-02-02T13:35:42.289Z,5.20
2019-02-02T13:38:37.036Z,5.00
2019-02-02T13:41:38.201Z,4.83
2019-02-02T13:44:45.370Z,5.00
2019-02-02T13:47:47.119Z,4.40
2019-02-02T13:50:40.681Z,4.47
2019-02-02T13:53:41.632Z,4.97
2019-02-02T13:56:35.982Z,4.60
2019-02-02T13:59:36.989Z,4.97
2019-02-02T14:02:31.584Z,4.50
2019-02-02T14:05:34.025Z,4.87
2019-02-02T14:08:28.479Z,4.40
2019-02-02T14:11:29.319Z,4.47
2019-02-02T14:14:23.836Z,4.67
2019-02-02T14:17:24.742Z,5.07
2019-02-02T14:20:20.250Z,4.80
2019-02-02T14:23:21.709Z,4.17
2019-02-02T14:26:16.218Z,4.80
2019-02-02T14:29:17.767Z,4.47
2019-02-02T14:32:12.157Z,4.83
2019-02-02T14:35:14.197Z,4.43
2019-02-02T14:38:08.514Z,5.50
2019-02-02T14:41:09.757Z,5.00
2019-02-02T14:44:11.672Z,5.07
2019-02-02T14:47:06.129Z,5.07
2019-02-02T14:49:59.896Z,4.50
2019-02-02T14:53:00.063Z,3.97
2019-02-02T14:56:07.402Z,4.43
2019-02-02T14:59:09.091Z,4.50
2019-02-02T15:02:02.608Z,4.60
2019-02-02T15:05:04.103Z,4.37
2019-02-02T15:07:58.359Z,4.43
2019-02-02T15:10:59.347Z,4.67
2019-02-02T15:13:54.387Z,4.73
2019-02-02T15:16:55.952Z,4.60
2019-02-02T15:19:49.476Z,4.77
2019-02-02T15:22:51.520Z,4.30
2019-02-02T15:25:46.029Z,4.20
2019-02-02T15:28:47.736Z,5.27
2019-02-02T15:31:42.230Z,5.07
2019-02-02T15:34:44.096Z,4.80
2019-02-02T15:37:38.496Z,5.00
2019-02-02T15:40:40.074Z,4.90
2019-02-02T15:43:34.537Z,5.07
2019-02-02T15:46:35.570Z,4.87
2019-02-02T15:49:30.027Z,4.90
2019-02-02T15:52:30.705Z,4.63
2019-02-02T15:55:28.170Z,5.03
2019-02-02T15:58:28.727Z,4.53
2019-02-02T16:01:29.571Z,5.57
2019-02-02T16:04:23.656Z,4.47
2019-02-02T16:07:17.316Z,4.67
2019-02-02T16:10:19.391Z,4.63
2019-02-02T16:13:13.339Z,5.63
2019-02-02T16:16:14.586Z,4.77
2019-02-02T16:19:21.079Z,4.77
2019-02-02T16:22:22.404Z,4.80
2019-02-02T16:25:17.612Z,4.53
2019-02-02T16:28:21.980Z,4.57
2019-02-02T16:31:15.582Z,4.47
2019-02-02T16:34:16.645Z,4.50
2019-02-02T16:37:11.160Z,4.70
2019-02-02T16:40:19.492Z,4.73
2019-02-02T16:43:13.694Z,5.97
2019-02-02T16:46:14.796Z,4.57
2019-02-02T16:49:10.380Z,4.50
2019-02-02T16:52:11.396Z,5.20
2019-02-02T16:55:05.130Z,4.73
2019-02-02T16:58:06.739Z,4.50
2019-02-02T17:01:01.258Z,4.37
2019-02-02T17:04:15.516Z,3.83
2019-02-02T17:07:01.420Z,4.73
2019-02-02T17:10:02.624Z,4.50
2019-02-02T17:12:56.848Z,4.87
2019-02-02T17:15:58.414Z,5.07
2019-02-02T17:18:52.519Z,4.30
2019-02-02T17:21:53.069Z,4.50
2019-02-02T17:24:46.121Z,4.80
2019-02-02T17:27:47.596Z,4.43
2019-02-02T17:30:41.320Z,5.03
2019-02-02T17:33:42.323Z,5.40
2019-02-02T17:36:37.052Z,4.70
2019-02-02T17:39:38.050Z,5.10
2019-02-02T17:42:32.343Z,4.60
2019-02-02T17:45:33.839Z,5.23
2019-02-02T17:48:28.425Z,4.43
2019-02-02T17:51:29.792Z,4.50
2019-02-02T17:54:23.852Z,4.50
2019-02-02T17:57:24.917Z,4.93
2019-02-02T18:00:22.141Z,5.27
2019-02-02T18:03:23.332Z,5.00
2019-02-02T18:06:30.689Z,5.03
2019-02-02T18:09:31.533Z,5.17
2019-02-02T18:12:24.879Z,5.37
2019-02-02T18:15:26.377Z,5.40
2019-02-02T18:18:20.424Z,4.80
2019-02-02T18:21:21.256Z,4.70
2019-02-02T18:24:15.032Z,4.67
2019-02-02T18:27:16.647Z,5.43
2019-02-02T18:30:12.585Z,4.73
2019-02-02T18:33:13.324Z,5.33
2019-02-02T18:36:07.606Z,4.83
2019-02-02T18:39:08.907Z,4.97
2019-02-02T18:42:16.531Z,5.47
2019-02-02T18:45:18.659Z,5.17
2019-02-02T18:48:12.191Z,4.80
2019-02-02T18:51:12.983Z,5.67
2019-02-02T18:54:06.681Z,5.37
2019-02-02T18:57:08.544Z,4.83
2019-02-02T19:00:02.637Z,4.73
2019-02-02T19:03:03.441Z,5.33
2019-02-02T19:05:57.639Z,5.10
2019-02-02T19:08:59.618Z,5.60
2019-02-02T19:11:54.285Z,5.63
2019-02-02T19:14:55.395Z,4.53
2019-02-02T19:17:49.780Z,5.00
2019-02-02T19:20:50.476Z,5.10
2019-02-02T19:23:46.433Z,4.60
2019-02-02T19:26:47.653Z,5.77
2019-02-02T19:29:41.315Z,5.50
2019-02-02T19:32:41.652Z,5.70
2019-02-02T19:35:35.314Z,5.10
2019-02-02T19:38:36.906Z,5.07
2019-02-02T19:41:31.265Z,4.70
2019-02-02T19:44:32.604Z,4.80
2019-02-02T19:47:26.683Z,5.37
2019-02-02T19:50:29.026Z,5.40
2019-02-02T19:53:22.352Z,5.67
2019-02-02T19:56:24.175Z,5.20
2019-02-02T19:59:19.514Z,5.13
2019-02-02T20:02:20.106Z,5.33
2019-02-02T20:05:14.809Z,5.80
2019-02-02T20:08:16.319Z,6.80
2019-02-02T20:11:23.247Z,6.67
2019-02-02T20:14:24.152Z,6.77
2019-02-02T20:17:18.277Z,5.17
2019-02-02T20:20:20.615Z,6.00
2019-02-02T20:23:14.705Z,5.50
2019-02-02T20:26:16.060Z,7.00
2019-02-02T20:29:17.111Z,5.97
2019-02-02T20:32:11.408Z,5.73
2019-02-02T20:35:06.794Z,6.93
2019-02-02T20:38:07.575Z,5.97
2019-02-02T20:41:14.774Z,6.53
2019-02-02T20:44:15.656Z,6.53
2019-02-02T20:47:09.699Z,7.57
2019-02-02T20:50:12.088Z,6.07
2019-02-02T20:53:09.498Z,7.33
2019-02-02T20:56:26.038Z,5.47
2019-02-02T20:59:19.781Z,6.20
2019-02-02T21:02:19.635Z,6.57
2019-02-02T21:05:20.444Z,6.37
2019-02-02T21:08:15.148Z,5.97
2019-02-02T21:11:09.202Z,6.57
2019-02-02T21:14:09.036Z,6.23
2019-02-02T21:17:03.455Z,5.93
2019-02-02T21:20:03.926Z,6.00
2019-02-02T21:22:57.334Z,7.13
2019-02-02T21:25:57.625Z,6.87
2019-02-02T21:28:58.654Z,6.47
2019-02-02T21:31:59.903Z,6.73
2019-02-02T21:34:54.372Z,6.63
2019-02-02T21:37:57.878Z,7.07
2019-02-02T21:40:52.230Z,6.83
2019-02-02T21:43:53.972Z,6.23
2019-02-02T21:46:48.604Z,7.50
2019-02-02T21:49:50.236Z,7.23
2019-02-02T21:52:44.576Z,6.90
2019-02-02T21:55:44.956Z,6.83
2019-02-02T21:58:39.272Z,7.80
2019-02-02T22:01:40.779Z,6.37
2019-02-02T22:04:33.970Z,7.57
2019-02-02T22:07:35.297Z,6.73
2019-02-02T22:10:46.376Z,6.23
2019-02-02T22:13:47.142Z,5.43
2019-02-02T22:16:41.404Z,7.47
2019-02-02T22:19:42.812Z,6.73
2019-02-02T22:22:39.542Z,6.17
2019-02-02T22:25:40.428Z,7.30
2019-02-02T22:28:34.594Z,6.23
2019-02-02T22:31:35.576Z,6.53
2019-02-02T22:34:29.852Z,5.80
2019-02-02T22:37:31.274Z,6.83
2019-02-02T22:40:26.030Z,6.27
2019-02-02T22:43:27.879Z,7.07
2019-02-02T22:46:22.240Z,6.20
2019-02-02T22:49:23.027Z,5.60
2019-02-02T22:52:17.159Z,5.93
2019-02-02T22:55:19.803Z,6.20
2019-02-02T22:58:13.092Z,7.33
2019-02-02T23:01:19.514Z,6.13
2019-02-02T23:04:21.969Z,5.77
2019-02-02T23:07:18.704Z,6.97
2019-02-02T23:10:14.168Z,5.93
2019-02-02T23:13:32.000Z,6.57
2019-02-02T23:16:26.318Z,6.20
2019-02-02T23:19:26.902Z,5.83
2019-02-02T23:22:21.008Z,6.97
2019-02-02T23:25:22.147Z,6.63
2019-02-02T23:28:29.553Z,6.53
2019-02-02T23:31:30.689Z,5.80
2019-02-02T23:34:24.778Z,6.30
2019-02-02T23:37:25.531Z,8.13
2019-02-02T23:40:19.871Z,5.73
2019-02-02T23:43:21.563Z,6.17
2019-02-02T23:46:22.796Z,6.10
2019-02-02T23:49:17.312Z,6.03
2019-02-02T23:52:11.306Z,5.97
2019-02-02T23:55:12.222Z,6.03
2019-02-02T23:58:19.626Z,5.73
